Time;durP1;ratioP1;P1;durP2;ratioP2;P2;SDS_P1;SDS_P2;PMS_P1;PMS_P2;Temp;Humidity;BMP_temperature;BMP_pressure;BME280_temperature;BME280_humidity;BME280_pressure;Samples;Min_cycle;Max_cycle;Signal;HPM_P1;HPM_P2
2021/07/02 00:00:23;;;;;;;5.40;4.90;;;21.70;99.90;;;21.90;55.76;101300.13;4907363;28;103961;-50
2021/07/02 00:02:48;;;;;;;5.30;4.83;;;21.70;99.90;;;21.92;55.59;101293.66;4915204;28;102728;-51
2021/07/02 00:05:15;;;;;;;15.17;12.40;;;21.80;99.90;;;21.87;55.78;101294.97;4907293;28;111092;-46
2021/07/02 00:07:41;;;;;;;6.37;5.70;;;21.60;99.90;;;21.85;55.72;101288.84;4911494;28;97126;-48
2021/07/02 00:10:08;;;;;;;5.20;4.77;;;21.60;99.90;;;21.81;55.97;101285.50;4907433;28;97651;-51
2021/07/02 00:12:35;;;;;;;12.43;9.40;;;21.50;99.90;;;21.79;56.02;101294.66;4914828;28;98512;-49
2021/07/02 00:15:02;;;;;;;5.53;4.80;;;21.50;99.90;;;21.81;55.93;101290.88;4917673;28;96865;-51
2021/07/02 00:17:27;;;;;;;5.40;4.90;;;21.60;99.90;;;21.85;55.76;101287.03;4909791;28;97795;-48
2021/07/02 00:19:53;;;;;;;4.80;4.40;;;21.70;99.90;;;21.91;55.59;101289.25;4926248;28;97695;-51
2021/07/02 00:22:19;;;;;;;5.07;4.60;;;21.80;99.90;;;21.96;55.60;101289.75;4910685;28;98982;-50
2021/07/02 00:24:45;;;;;;;5.00;4.53;;;21.90;99.90;;;22.00;55.23;101284.19;4927975;28;97301;-49
2021/07/02 00:27:11;;;;;;;5.10;4.20;;;21.90;99.90;;;22.04;55.14;101283.84;4905802;28;97472;-49
2021/07/02 00:29:37;;;;;;;5.27;4.77;;;22.00;99.90;;;22.09;54.93;101284.38;4916243;28;100620;-53
2021/07/02 00:32:04;;;;;;;4.47;4.00;;;22.10;99.90;;;22.13;55.02;101283.22;4905668;28;98281;-49
2021/07/02 00:34:29;;;;;;;5.10;4.60;;;22.10;99.90;;;22.15;54.95;101283.09;4931500;28;97094;-53
2021/07/02 00:36:55;;;;;;;4.77;4.37;;;22.10;99.90;;;22.15;54.84;101281.25;4909234;28;96895;-49
2021/07/02 00:39:21;;;;;;;4.80;4.33;;;22.10;99.90;;;22.16;55.04;101274.06;4908201;28;97667;-50
2021/07/02 00:41:47;;;;;;;5.33;4.83;;;22.10;99.90;;;22.15;54.94;101273.19;4910679;28;100844;-50
2021/07/02 00:44:13;;;;;;;5.00;4.47;;;22.10;99.90;;;22.17;54.87;101270.41;4908234;28;104444;-53
2021/07/02 00:46:39;;;;;;;4.83;4.40;;;22.10;99.90;;;22.18;54.79;101262.22;4911900;28;98753;-51
2021/07/02 00:49:05;;;;;;;4.50;4.10;;;22.10;99.90;;;22.20;54.70;101271.00;4908156;28;99361;-50
2021/07/02 00:51:31;;;;;;;5.03;4.63;;;22.10;99.90;;;22.20;54.74;101265.63;4924826;28;100170;-49
2021/07/02 00:53:58;;;;;;;4.60;4.20;;;22.20;99.90;;;22.21;54.65;101270.03;4940849;28;96986;-52
2021/07/02 00:56:25;;;;;;;4.90;4.50;;;22.10;99.90;;;22.20;54.62;101273.69;4923496;28;99165;-48
2021/07/02 00:58:51;;;;;;;5.47;4.43;;;22.20;99.90;;;22.21;54.64;101267.34;4912537;28;97522;-50
2021/07/02 01:01:17;;;;;;;5.13;4.63;;;22.10;99.90;;;22.17;54.63;101265.03;4909588;28;97707;-49
2021/07/02 01:03:45;;;;;;;5.50;5.00;;;22.10;99.90;;;22.19;54.52;101271.13;4912695;28;97459;-51
2021/07/02 01:06:13;;;;;;;4.87;4.37;;;22.10;99.90;;;22.19;54.72;101263.94;4923598;28;97238;-48
2021/07/02 01:08:41;;;;;;;5.10;4.60;;;22.10;99.90;;;22.21;54.70;101261.97;4910845;28;97322;-50
2021/07/02 01:11:09;;;;;;;6.57;4.70;;;22.20;99.90;;;22.22;54.74;101263.69;4909318;28;97790;-49
2021/07/02 01:13:34;;;;;;;5.10;4.60;;;22.20;99.90;;;22.18;54.76;101256.84;4913395;28;97113;-50
2021/07/02 01:16:00;;;;;;;11.00;9.10;;;22.10;99.90;;;22.19;54.73;101261.25;4924761;28;96847;-50
2021/07/02 01:18:26;;;;;;;5.33;4.83;;;22.10;99.90;;;22.17;54.88;101260.50;4913421;28;97428;-53
2021/07/02 01:20:53;;;;;;;17.60;12.53;;;22.10;99.90;;;22.16;54.82;101269.53;4911173;28;104959;-48
2021/07/02 01:23:20;;;;;;;5.10;4.60;;;22.10;99.90;;;22.11;55.01;101260.94;4907203;28;97401;-47
2021/07/02 01:25:48;;;;;;;6.67;6.00;;;22.00;99.90;;;22.08;55.21;101265.69;4927847;28;96955;-48
2021/07/02 01:28:16;;;;;;;5.07;4.57;;;21.90;99.90;;;22.04;55.35;101259.66;4919271;28;97798;-51
2021/07/02 01:30:44;;;;;;;5.67;5.17;;;21.90;99.90;;;22.03;55.30;101249.03;4928957;28;99094;-48
2021/07/02 01:33:12;;;;;;;4.83;4.33;;;21.90;99.90;;;22.01;55.40;101265.28;4903539;28;98091;-50
2021/07/02 01:35:39;;;;;;;5.20;4.60;;;21.90;99.90;;;21.98;55.45;101260.09;4914923;28;97443;-51
2021/07/02 01:38:06;;;;;;;5.23;4.73;;;21.80;99.90;;;21.96;55.62;101262.03;4920189;28;97292;-50
2021/07/02 01:40:33;;;;;;;5.60;5.10;;;21.80;99.90;;;21.93;55.65;101256.91;4916254;28;98403;-51
2021/07/02 01:43:00;;;;;;;6.07;5.47;;;21.70;99.90;;;21.90;55.76;101257.13;4921043;28;96959;-56
2021/07/02 01:45:26;;;;;;;11.30;8.70;;;21.70;99.90;;;21.89;55.67;101260.81;4896702;28;97189;-47
2021/07/02 01:47:52;;;;;;;5.60;5.10;;;21.70;99.90;;;21.87;55.77;101254.69;4926239;28;99564;-47
2021/07/02 01:50:19;;;;;;;5.63;4.93;;;21.60;99.90;;;21.88;55.87;101253.72;4917310;28;99675;-50
2021/07/02 01:52:44;;;;;;;5.33;4.73;;;21.70;99.90;;;21.88;55.85;101245.66;4911496;28;97308;-48
2021/07/02 01:55:11;;;;;;;6.13;5.17;;;21.70;99.90;;;21.87;55.72;101247.50;4920699;28;97265;-49
2021/07/02 01:57:37;;;;;;;9.03;8.13;;;21.70;99.90;;;21.85;55.73;101243.22;4924881;28;97180;-47
2021/07/02 02:00:05;;;;;;;4.33;3.93;;;21.70;99.90;;;21.85;55.85;101256.63;4919745;28;99613;-49
2021/07/02 02:02:31;;;;;;;4.70;4.30;;;21.60;99.90;;;21.89;55.74;101250.91;4928722;28;97309;-48
2021/07/02 02:04:58;;;;;;;5.00;4.50;;;21.70;99.90;;;21.92;55.68;101249.81;4906455;28;98287;-51
2021/07/02 02:07:24;;;;;;;5.90;4.60;;;21.80;99.90;;;21.92;55.66;101249.81;4924210;28;101851;-50
2021/07/02 02:09:50;;;;;;;6.97;5.37;;;21.80;99.90;;;21.94;55.64;101247.88;4909954;28;97606;-49
2021/07/02 02:12:16;;;;;;;5.37;4.87;;;21.80;99.90;;;21.93;55.62;101240.78;4907107;28;96954;-50
2021/07/02 02:14:42;;;;;;;4.60;4.20;;;21.80;99.90;;;21.94;55.54;101242.50;4913123;28;97570;-47
2021/07/02 02:17:07;;;;;;;4.53;4.13;;;21.80;99.90;;;21.97;55.59;101248.50;4908950;28;97566;-48
2021/07/02 02:19:34;;;;;;;5.13;4.60;;;21.80;99.90;;;21.99;55.40;101245.72;4923898;28;96971;-49
2021/07/02 02:22:00;;;;;;;4.60;4.10;;;21.90;99.90;;;22.03;55.33;101243.66;4923269;28;97223;-51
2021/07/02 02:24:27;;;;;;;5.10;4.57;;;21.90;99.90;;;22.04;55.24;101248.06;4914537;28;97663;-49
2021/07/02 02:26:53;;;;;;;5.20;4.53;;;21.90;99.90;;;22.02;55.28;101245.50;4908579;28;98187;-49
2021/07/02 02:29:18;;;;;;;4.90;4.43;;;21.90;99.90;;;22.00;55.37;101247.44;4910062;28;107624;-48
2021/07/02 02:31:44;;;;;;;4.27;3.87;;;21.90;99.90;;;21.99;55.42;101240.34;4924110;28;106493;-49
2021/07/02 02:34:10;;;;;;;4.83;4.43;;;21.90;99.90;;;21.99;55.41;101245.72;4907433;28;97394;-50
2021/07/02 02:36:36;;;;;;;4.80;4.37;;;21.90;99.90;;;21.98;55.33;101249.34;4913405;28;97931;-51
2021/07/02 02:39:05;;;;;;;5.07;4.50;;;21.90;99.90;;;22.00;55.35;101246.59;4911551;28;97975;-52
2021/07/02 02:41:32;;;;;;;5.00;4.50;;;21.90;99.90;;;21.95;55.40;101254.97;4931844;28;97493;-50
2021/07/02 02:43:58;;;;;;;6.23;5.43;;;21.80;99.90;;;21.92;55.72;101249.81;4930771;28;96893;-57
2021/07/02 02:46:23;;;;;;;5.27;4.33;;;21.70;99.90;;;21.90;55.84;101257.13;4911746;28;103016;-47
2021/07/02 02:48:50;;;;;;;4.30;3.90;;;21.70;99.90;;;21.91;55.66;101248.97;4915320;28;112047;-47
2021/07/02 02:51:16;;;;;;;4.87;4.47;;;21.80;99.90;;;21.92;55.73;101249.81;4918054;28;97160;-50
2021/07/02 02:53:42;;;;;;;5.47;4.83;;;21.80;99.90;;;21.88;55.83;101248.34;4946782;28;97571;-47
2021/07/02 02:56:08;;;;;;;6.73;5.50;;;21.70;99.90;;;21.85;55.91;101253.94;4923765;28;98461;-50
2021/07/02 02:58:34;;;;;;;5.37;4.70;;;21.60;99.90;;;21.84;55.95;101252.19;4918504;28;99838;-48
2021/07/02 03:01:00;;;;;;;5.47;3.87;;;21.60;99.90;;;21.87;55.90;101243.94;4911116;28;97258;-50
2021/07/02 03:03:25;;;;;;;5.47;4.43;;;21.70;99.90;;;21.89;55.86;101250.06;4911705;28;101433;-50
2021/07/02 03:05:51;;;;;;;10.17;8.67;;;21.70;99.90;;;21.86;55.81;101245.78;4931294;28;100476;-50
2021/07/02 03:08:17;;;;;;;5.50;4.57;;;21.70;99.90;;;21.81;55.84;101253.28;4912028;28;97334;-51
2021/07/02 03:10:43;;;;;;;14.77;11.67;;;21.60;99.90;;;21.77;56.05;101250.94;4931927;28;96873;-49
2021/07/02 03:13:09;;;;;;;24.13;18.03;;;21.40;99.90;;;21.69;56.29;101252.34;4908466;28;98417;-48
2021/07/02 03:15:35;;;;;;;18.17;13.70;;;21.30;99.90;;;21.63;56.54;101254.63;4910751;28;97395;-47
2021/07/02 03:18:01;;;;;;;22.20;16.67;;;21.20;99.90;;;21.53;56.67;101249.06;4924422;28;111818;-48
2021/07/02 03:20:28;;;;;;;11.97;10.77;;;21.00;99.90;;;21.45;57.08;101261.34;4928343;28;96840;-50
2021/07/02 03:22:54;;;;;;;11.30;9.47;;;20.90;99.90;;;21.37;57.30;101254.69;4915881;28;97653;-49
2021/07/02 03:25:20;;;;;;;12.97;9.93;;;20.80;99.90;;;21.28;57.69;101255.34;4913868;28;97633;-54
2021/07/02 03:27:46;;;;;;;10.70;9.27;;;20.60;99.90;;;21.24;57.76;101252.94;4908499;28;98650;-48
2021/07/02 03:30:13;;;;;;;17.30;12.20;;;20.60;99.90;;;21.19;57.73;101253.28;4907845;28;97177;-51
2021/07/02 03:32:40;;;;;;;19.00;14.77;;;20.60;99.90;;;21.15;57.82;101253.63;4930059;28;97626;-47
2021/07/02 03:35:11;;;;;;;9.50;7.17;;;20.50;99.90;;;21.14;58.08;101257.25;4928164;28;96981;-52
2021/07/02 03:37:37;;;;;;;9.83;8.23;;;20.50;99.90;;;21.05;58.23;101256.06;4927709;28;97297;-50
2021/07/02 03:40:08;;;;;;;13.37;10.13;;;20.40;99.90;;;21.03;58.43;101256.19;4910748;28;97091;-52
2021/07/02 03:42:34;;;;;;;8.27;7.37;;;20.40;99.90;;;20.96;58.48;101251.34;4923433;28;96931;-51
2021/07/02 03:45:00;;;;;;;15.77;11.23;;;20.30;99.90;;;20.95;58.54;101247.81;4919891;28;96872;-49
2021/07/02 03:47:26;;;;;;;14.77;11.97;;;20.30;99.90;;;20.90;58.76;101263.38;4926985;28;97226;-48
2021/07/02 03:49:52;;;;;;;7.87;6.70;;;20.20;99.90;;;20.85;58.99;101257.47;4908820;28;124054;-52
2021/07/02 03:52:18;;;;;;;9.30;7.60;;;20.10;99.90;;;20.87;58.89;101260.06;4903772;28;102701;-52
2021/07/02 03:54:44;;;;;;;22.50;11.83;;;20.20;99.90;;;20.82;59.04;101263.03;4925972;28;104147;-51
2021/07/02 03:57:13;;;;;;;12.40;8.40;;;20.10;99.90;;;20.79;59.00;101256.06;4904978;28;97568;-50
2021/07/02 03:59:51;;;;;;;8.17;7.20;;;20.10;99.90;;;20.77;59.30;101267.84;4926949;28;97758;-52
2021/07/02 04:02:20;;;;;;;6.27;4.80;;;20.00;99.90;;;20.74;59.39;101265.38;4925518;28;96937;-50
2021/07/02 04:04:46;;;;;;;13.93;9.13;;;20.00;99.90;;;20.71;59.22;101266.47;4914961;28;98593;-48
2021/07/02 04:07:13;;;;;;;6.30;5.10;;;20.00;99.90;;;20.72;59.17;101270.84;4925804;28;99419;-47
2021/07/02 04:09:40;;;;;;;19.23;13.33;;;20.00;99.90;;;20.71;59.44;101270.97;4913976;28;97153;-51
2021/07/02 04:12:07;;;;;;;11.70;8.50;;;20.00;99.90;;;20.68;59.39;101266.66;4926148;28;98020;-49
2021/07/02 04:14:33;;;;;;;7.90;6.17;;;19.90;99.90;;;20.67;59.56;101274.81;4909469;28;98465;-50
2021/07/02 04:16:59;;;;;;;8.90;7.67;;;19.90;99.90;;;20.63;59.69;101273.31;4912571;28;97422;-55
2021/07/02 04:19:26;;;;;;;15.93;11.47;;;19.90;99.90;;;20.63;59.55;101268.78;4912769;28;97475;-47
2021/07/02 04:21:52;;;;;;;6.30;5.50;;;19.90;99.90;;;20.60;59.75;101268.16;4915480;28;97088;-50
2021/07/02 04:24:18;;;;;;;16.80;12.23;;;19.80;99.90;;;20.56;59.64;101263.97;4909702;28;98905;-54
2021/07/02 04:26:45;;;;;;;20.40;12.20;;;19.70;99.90;;;20.57;59.75;101269.22;4914962;28;97392;-51
2021/07/02 04:29:12;;;;;;;7.77;6.43;;;19.80;99.90;;;20.58;59.88;101272.75;4911130;28;98376;-49
2021/07/02 04:31:38;;;;;;;12.07;8.60;;;19.80;99.90;;;20.54;59.87;101269.41;4904719;28;101420;-49
2021/07/02 04:34:04;;;;;;;16.50;10.90;;;19.70;99.90;;;20.50;59.84;101273.28;4908712;28;97698;-53
2021/07/02 04:36:30;;;;;;;16.87;11.37;;;19.70;99.90;;;20.48;60.01;101276.06;4912520;28;98428;-49
2021/07/02 04:38:57;;;;;;;11.27;9.07;;;19.70;99.90;;;20.52;60.15;101281.19;4915609;28;97591;-50
2021/07/02 04:41:23;;;;;;;10.60;7.17;;;19.70;99.90;;;20.52;59.84;101276.69;4919995;28;97323;-49
2021/07/02 04:43:50;;;;;;;13.50;9.13;;;19.80;99.90;;;20.45;59.96;101286.97;4914227;28;97188;-48
2021/07/02 04:46:16;;;;;;;9.13;6.90;;;19.60;99.90;;;20.46;59.86;101283.34;4905644;28;96989;-50
2021/07/02 04:48:43;;;;;;;9.67;6.70;;;19.70;99.90;;;20.44;60.18;101284.41;4910637;28;96900;-50
2021/07/02 04:51:10;;;;;;;13.77;9.77;;;19.60;99.90;;;20.46;59.99;101283.34;4904974;28;96988;-54
2021/07/02 04:53:35;;;;;;;12.57;8.73;;;19.70;99.90;;;20.47;60.00;101279.69;4923018;28;100356;-49
2021/07/02 04:56:01;;;;;;;8.83;7.23;;;19.70;99.90;;;20.43;59.97;101286.22;4908509;28;97588;-49
2021/07/02 04:58:28;;;;;;;7.40;5.77;;;19.70;99.90;;;20.43;60.19;101283.56;4913195;28;97447;-50
2021/07/02 05:00:54;;;;;;;10.10;7.80;;;19.70;99.90;;;20.39;59.98;101287.34;4911659;28;103223;-51
2021/07/02 05:03:19;;;;;;;7.87;6.37;;;19.60;99.90;;;20.41;60.15;101288.16;4910471;28;98356;-52
2021/07/02 05:05:45;;;;;;;6.97;6.20;;;19.60;99.90;;;20.40;60.34;101286.41;4911360;28;116214;-50
2021/07/02 05:08:12;;;;;;;5.83;4.57;;;19.60;99.90;;;20.46;60.25;101288.69;4906127;28;108132;-48
2021/07/02 05:10:38;;;;;;;18.97;12.27;;;19.70;99.90;;;20.44;58.45;101296.00;4930314;28;99415;-49
2021/07/02 05:13:05;;;;;;;17.20;11.63;;;19.70;99.90;;;20.46;59.92;101294.06;4904273;28;99642;-54
2021/07/02 05:15:31;;;;;;;5.20;4.43;;;19.70;99.90;;;20.55;59.93;101287.25;4929486;28;99733;-52
2021/07/02 05:17:57;;;;;;;8.20;7.37;;;19.90;99.90;;;20.62;59.40;101293.03;4909291;28;97010;-49
2021/07/02 05:20:23;;;;;;;8.03;6.43;;;20.10;99.90;;;20.66;59.46;101290.03;4910373;28;97119;-53
2021/07/02 05:22:48;;;;;;;6.37;5.03;;;20.10;99.90;;;20.73;59.34;101290.47;4909506;28;98663;-53
2021/07/02 05:25:14;;;;;;;10.37;8.33;;;20.30;99.90;;;20.72;59.27;101286.09;4925251;28;109281;-52
2021/07/02 05:27:40;;;;;;;6.03;5.40;;;20.20;99.90;;;20.70;59.31;101290.69;4910221;28;96940;-52
2021/07/02 05:30:07;;;;;;;13.67;10.47;;;20.10;99.90;;;20.64;59.03;101293.78;4909884;28;98416;-54
2021/07/02 05:32:33;;;;;;;15.43;10.97;;;19.90;99.90;;;20.57;59.64;101297.84;4924506;28;97473;-50
2021/07/02 05:34:59;;;;;;;10.27;8.37;;;19.80;99.90;;;20.57;59.38;101295.16;4909911;28;98258;-57
2021/07/02 05:37:25;;;;;;;14.07;11.00;;;19.80;99.90;;;20.52;59.53;101292.78;4907829;28;101280;-55
2021/07/02 05:39:51;;;;;;;11.97;9.47;;;19.70;99.90;;;20.45;59.16;101295.03;4928178;28;97457;-51
2021/07/02 05:42:21;;;;;;;8.50;7.33;;;19.70;99.90;;;20.46;59.63;101296.75;4919215;28;100121;-55
2021/07/02 05:44:48;;;;;;;16.77;11.10;;;19.70;99.90;;;20.43;59.87;101299.63;4922279;28;99670;-52
2021/07/02 05:47:14;;;;;;;6.80;6.10;;;19.60;99.90;;;20.44;60.01;101301.34;4925179;28;96996;-51
2021/07/02 05:49:40;;;;;;;8.50;7.47;;;19.70;99.90;;;20.46;59.86;101299.41;4893579;28;97098;-48
2021/07/02 05:52:06;;;;;;;8.50;7.23;;;19.70;99.90;;;20.45;59.95;101295.03;4909390;28;97544;-49
2021/07/02 05:54:32;;;;;;;14.23;10.73;;;19.70;99.90;;;20.48;59.85;101294.81;4911989;28;97195;-52
2021/07/02 05:56:58;;;;;;;7.43;5.77;;;19.80;99.90;;;20.50;59.88;101294.69;4913293;28;96852;-50
2021/07/02 05:59:24;;;;;;;9.87;7.40;;;19.80;99.90;;;20.51;59.80;101296.41;4907963;28;97484;-51
2021/07/02 06:01:50;;;;;;;7.70;6.90;;;19.80;99.90;;;20.53;59.89;101304.34;4912308;28;107545;-53
2021/07/02 06:04:16;;;;;;;6.40;5.47;;;19.80;99.90;;;20.56;59.89;101301.50;4906061;28;109696;-52
2021/07/02 06:06:42;;;;;;;8.60;7.67;;;19.80;99.90;;;20.57;59.71;101300.53;4897721;28;97228;-49
2021/07/02 06:09:08;;;;;;;8.40;6.50;;;19.90;99.90;;;20.52;59.91;101299.97;4906047;28;96799;-49
2021/07/02 06:11:33;;;;;;;5.10;4.60;;;19.80;99.90;;;20.50;59.93;101300.91;4896405;28;97249;-51
2021/07/02 06:13:59;;;;;;;17.37;11.73;;;19.70;99.90;;;20.42;58.64;101303.28;4910190;28;119379;-58
2021/07/02 06:16:25;;;;;;;17.27;11.87;;;19.70;99.90;;;20.37;58.13;101313.38;4929986;28;97238;-52
2021/07/02 06:18:51;;;;;;;17.67;11.33;;;19.60;99.90;;;20.29;57.85;101313.06;4913318;28;100093;-51
2021/07/02 06:21:16;;;;;;;11.40;8.63;;;19.50;99.90;;;20.30;59.93;101316.59;4925401;28;101805;-51
2021/07/02 06:23:42;;;;;;;5.30;4.80;;;19.50;99.90;;;20.37;60.30;101315.19;4930868;28;97119;-49
2021/07/02 06:26:09;;;;;;;13.40;9.67;;;19.70;99.90;;;20.49;59.88;101311.75;4924578;28;97175;-53
2021/07/02 06:28:37;;;;;;;15.47;9.77;;;19.90;99.90;;;20.53;58.37;101321.28;4930822;28;97565;-52
2021/07/02 06:31:04;;;;;;;13.70;9.93;;;20.00;99.90;;;20.54;59.37;101322.16;4909364;28;97076;-50
2021/07/02 06:33:30;;;;;;;15.17;10.13;;;20.00;99.90;;;20.53;59.05;101320.44;4915236;28;99622;-52
2021/07/02 06:35:55;;;;;;;12.60;10.70;;;19.90;99.90;;;20.55;57.87;101323.91;4913318;28;97768;-50
2021/07/02 06:38:22;;;;;;;4.90;4.50;;;20.00;99.90;;;20.57;59.50;101321.97;4912948;28;97468;-48
2021/07/02 06:40:48;;;;;;;5.40;4.90;;;19.90;99.90;;;20.72;59.29;101315.56;4910348;28;97402;-50
2021/07/02 06:43:15;;;;;;;12.93;9.30;;;20.30;99.90;;;20.64;56.29;101312.53;4907480;28;96940;-50
2021/07/02 06:45:41;;;;;;;13.43;10.67;;;20.20;99.90;;;20.61;57.75;101313.59;4903453;28;97517;-49
2021/07/02 06:48:07;;;;;;;13.93;9.53;;;20.10;99.90;;;20.67;59.00;101317.69;4927764;28;97176;-51
2021/07/02 06:50:38;;;;;;;10.40;7.27;;;20.10;99.90;;;20.75;58.92;101318.03;4907301;28;99588;-53
2021/07/02 06:53:05;;;;;;;11.97;9.87;;;20.20;99.90;;;20.72;57.23;101320.94;4921800;28;99482;-51
2021/07/02 06:55:33;;;;;;;5.60;4.73;;;20.20;99.90;;;20.73;59.04;101317.28;4911394;28;96934;-50
2021/07/02 06:57:59;;;;;;;5.23;4.70;;;20.20;99.90;;;20.94;58.39;101321.19;4914662;28;97370;-60
2021/07/02 07:00:25;;;;;;;5.37;4.30;;;20.60;99.90;;;21.14;57.68;101317.13;4909509;28;102354;-53
2021/07/02 07:02:51;;;;;;;7.30;5.20;;;20.90;99.90;;;21.29;57.28;101321.47;4927793;28;97276;-50
2021/07/02 07:05:18;;;;;;;5.67;4.20;;;21.10;99.90;;;21.43;57.08;101325.00;4927112;28;97029;-50
2021/07/02 07:07:45;;;;;;;4.87;4.40;;;21.30;99.90;;;21.49;56.92;101327.25;4922558;28;96915;-49
2021/07/02 07:10:11;;;;;;;15.60;10.10;;;21.30;99.90;;;21.46;56.67;101328.31;4921629;28;99719;-53
2021/07/02 07:12:38;;;;;;;16.13;12.47;;;21.20;99.90;;;21.25;52.46;101329.81;4900283;28;97410;-50
2021/07/02 07:15:05;;;;;;;5.00;4.60;;;20.90;99.90;;;21.31;57.26;101334.78;4910228;28;97051;-51
2021/07/02 07:17:32;;;;;;;4.27;3.80;;;20.90;99.90;;;21.38;57.06;101325.31;4912746;28;96855;-48
2021/07/02 07:19:58;;;;;;;5.57;4.80;;;21.00;99.90;;;21.45;56.88;101326.63;4910004;28;97334;-52
2021/07/02 07:22:24;;;;;;;4.97;4.40;;;21.20;99.90;;;21.40;56.78;101328.75;4909620;28;99841;-53
2021/07/02 07:24:50;;;;;;;3.97;3.67;;;21.10;99.90;;;21.44;56.97;101327.56;4927170;28;97833;-55
2021/07/02 07:27:18;;;;;;;7.50;5.13;;;21.10;99.90;;;21.53;56.69;101324.22;4921796;28;97041;-52
2021/07/02 07:29:44;;;;;;;4.70;4.00;;;21.30;99.90;;;21.63;56.47;101319.06;4930088;28;99422;-51
2021/07/02 07:32:10;;;;;;;4.13;3.73;;;21.40;99.90;;;21.69;56.23;101327.53;4910521;28;97884;-52
2021/07/02 07:37:11;;;;;;;11.27;6.23;;;21.30;99.90;;;21.58;50.91;101321.22;4908360;28;96764;-51
2021/07/02 07:39:37;;;;;;;9.50;6.27;;;21.30;99.90;;;21.39;50.59;101327.03;4942616;28;99626;-53
2021/07/02 07:42:04;;;;;;;10.50;6.77;;;21.00;99.90;;;21.38;55.48;101320.78;4920554;28;97056;-52
2021/07/02 07:44:30;;;;;;;10.27;6.17;;;21.00;99.90;;;21.19;53.16;101330.22;4913211;28;97172;-50
2021/07/02 07:46:56;;;;;;;6.20;4.73;;;20.70;99.90;;;21.17;56.45;101337.53;4916343;28;96843;-54
2021/07/02 07:49:23;;;;;;;4.20;3.80;;;20.70;99.90;;;21.16;57.19;101341.16;4904599;28;97651;-53
2021/07/02 07:51:56;;;;;;;5.63;4.53;;;20.70;99.90;;;21.19;56.37;101349.84;4926646;28;101089;-54
2021/07/02 07:54:22;;;;;;;6.07;4.20;;;20.80;99.90;;;21.18;52.36;101339.25;4921092;28;97613;-52
2021/07/02 07:56:51;;;;;;;6.33;5.67;;;20.90;98.60;;;21.24;54.89;101333.44;4917077;28;97290;-56
2021/07/02 07:59:22;;;;;;;5.83;4.33;;;21.00;99.90;;;21.19;50.88;101336.44;4920346;28;98006;-55
2021/07/02 08:01:49;;;;;;;9.10;5.27;;;20.90;97.50;;;21.16;52.43;101341.16;4929970;28;97685;-51
2021/07/02 08:04:15;;;;;;;4.67;3.50;;;20.80;99.90;;;21.21;56.08;101344.38;4918411;28;103831;-53
2021/07/02 08:06:45;;;;;;;3.80;3.50;;;20.90;99.90;;;21.26;56.46;101342.25;4913375;28;97390;-55
2021/07/02 08:09:14;;;;;;;6.57;5.07;;;21.00;99.90;;;21.15;50.32;101340.31;4908944;28;99656;-53
2021/07/02 08:11:40;;;;;;;7.80;5.33;;;20.90;99.90;;;21.13;52.03;101346.75;4915597;28;98099;-51
2021/07/02 08:14:07;;;;;;;6.43;4.70;;;20.80;99.40;;;21.11;49.04;101338.78;4920468;28;99161;-57
2021/07/02 08:16:34;;;;;;;10.50;6.33;;;20.80;99.10;;;21.06;55.47;101339.13;4914929;28;97144;-54
2021/07/02 08:19:01;;;;;;;7.43;5.40;;;20.70;99.90;;;21.03;48.99;101342.00;4908738;28;100334;-58
2021/07/02 08:21:27;;;;;;;7.23;4.70;;;20.70;99.00;;;21.14;53.53;101341.28;4911345;28;102394;-50
2021/07/02 08:23:53;;;;;;;5.90;4.20;;;20.80;99.90;;;21.07;56.07;101346.19;4924154;28;97009;-58
2021/07/02 08:26:19;;;;;;;8.47;5.47;;;20.70;99.90;;;21.10;52.14;101343.28;4922500;28;97222;-53
2021/07/02 08:31:31;;;;;;;4.23;3.80;;;20.80;99.90;;;21.19;56.53;101346.31;4898130;28;101121;-55
2021/07/02 08:33:58;;;;;;;4.23;3.83;;;20.90;99.90;;;21.28;56.55;101340.34;4908690;28;97347;-55
2021/07/02 08:36:24;;;;;;;6.13;4.20;;;21.30;99.90;;;20.99;47.90;101340.50;4908394;28;103581;-46
2021/07/02 08:38:50;;;;;;;5.83;4.40;;;20.80;98.50;;;21.06;54.39;101347.16;4910989;28;99882;-44
2021/07/02 08:41:16;;;;;;;7.07;4.13;;;20.70;99.90;;;21.16;53.67;101338.50;4916849;28;100207;-46
2021/07/02 08:43:46;;;;;;;5.77;3.83;;;20.90;99.90;;;21.24;54.71;101336.13;4941675;28;97152;-49
2021/07/02 08:46:14;;;;;;;4.03;3.50;;;21.00;99.90;;;21.25;52.08;101332.50;4918314;28;97256;-54
2021/07/02 08:48:41;;;;;;;5.90;3.90;;;21.00;99.60;;;21.32;53.69;101333.81;4908529;28;100157;-54
2021/07/02 08:51:08;;;;;;;4.37;3.47;;;21.10;99.90;;;21.36;48.38;101327.25;4918964;28;98544;-52
2021/07/02 08:53:37;;;;;;;4.23;3.83;;;21.20;98.10;;;21.37;54.27;101331.66;4912629;28;97162;-50
2021/07/02 08:56:04;;;;;;;4.67;3.67;;;21.10;99.90;;;21.44;52.35;101334.78;4905673;28;97002;-47
2021/07/02 08:58:31;;;;;;;5.40;3.77;;;21.20;99.90;;;21.47;53.99;101334.56;4909882;28;101303;-44
2021/07/02 09:00:58;;;;;;;6.30;3.50;;;21.20;99.90;;;21.44;46.34;101341.00;4905260;28;99141;-48
2021/07/02 09:03:36;;;;;;;4.90;3.80;;;21.30;97.10;;;21.47;51.91;101335.41;4924072;28;97281;-45
2021/07/02 09:06:15;;;;;;;4.73;3.83;;;21.20;99.60;;;21.49;48.33;101336.16;4904374;28;97017;-48
2021/07/02 09:09:04;;;;;;;4.87;3.70;;;21.30;98.90;;;21.46;49.54;101335.53;4913903;28;97599;-51
2021/07/02 09:11:31;;;;;;;4.73;3.83;;;21.20;99.30;;;21.46;53.14;101339.06;4907533;28;99863;-49
2021/07/02 09:13:58;;;;;;;6.43;4.10;;;21.20;99.80;;;21.41;47.11;101340.34;4924981;28;97197;-47
2021/07/02 09:16:36;;;;;;;4.13;3.73;;;21.10;97.40;;;21.43;53.55;101341.97;4904462;28;99750;-44
2021/07/02 09:19:29;;;;;;;4.37;3.97;;;21.10;99.90;;;21.48;53.17;101347.84;4922216;28;98078;-46
2021/07/02 09:22:16;;;;;;;4.93;3.40;;;21.20;98.60;;;21.43;48.52;101341.09;4919523;28;99199;-49
2021/07/02 09:24:45;;;;;;;5.60;3.97;;;21.20;96.80;;;21.45;53.04;101336.50;4907852;28;98428;-49
2021/07/02 09:27:33;;;;;;;6.03;3.80;;;21.10;99.90;;;21.49;54.00;101344.19;4905841;28;98161;-47
2021/07/02 09:30:13;;;;;;;8.17;4.03;;;21.20;99.90;;;21.56;53.91;101350.88;4926593;28;102273;-50
2021/07/02 09:32:56;;;;;;;6.13;4.33;;;21.40;99.90;;;21.57;51.05;101344.53;4921700;28;104309;-49
2021/07/02 09:35:28;;;;;;;4.90;3.60;;;21.40;98.40;;;21.56;52.06;101340.13;4910411;28;97411;-45
2021/07/02 09:37:58;;;;;;;6.40;3.80;;;21.40;99.40;;;21.55;49.43;101348.28;4911427;28;97365;-48
2021/07/02 09:40:29;;;;;;;5.07;3.50;;;21.30;97.00;;;21.53;51.98;101351.06;4911171;28;102834;-48
2021/07/02 09:43:08;;;;;;;5.40;3.73;;;21.30;98.90;;;21.46;47.73;101347.09;4923245;28;99410;-48
2021/07/02 09:45:50;;;;;;;6.20;3.67;;;21.20;97.80;;;21.47;53.47;101346.16;4914428;28;97791;-47
2021/07/02 09:48:20;;;;;;;5.10;3.40;;;21.20;99.90;;;21.52;51.77;101343.97;4922623;28;97127;-44
2021/07/02 09:51:22;;;;;;;4.40;3.47;;;21.30;99.20;;;21.58;51.91;101350.75;4921147;28;97400;-47
2021/07/02 09:54:04;;;;;;;5.93;4.27;;;21.40;98.10;;;21.59;48.00;101350.66;4921091;28;102371;-45
2021/07/02 09:56:30;;;;;;;3.63;3.10;;;21.40;99.90;;;21.65;52.88;101349.34;4909767;28;101520;-49
2021/07/02 09:58:55;;;;;;;7.50;3.87;;;21.50;99.80;;;21.68;53.40;101349.13;4924134;28;113739;-47
2021/07/02 10:01:28;;;;;;;3.63;3.33;;;21.50;99.90;;;21.71;53.25;101348.94;4918408;28;107020;-44
2021/07/02 10:03:54;;;;;;;4.43;3.43;;;21.50;99.90;;;21.65;46.84;101355.56;4908971;28;98257;-47
2021/07/02 10:06:25;;;;;;;8.87;4.57;;;21.50;97.30;;;21.39;53.44;101356.53;4906432;28;97638;-53
2021/07/02 10:08:52;;;;;;;5.60;4.27;;;21.10;99.90;;;21.46;49.21;101357.00;4922673;28;98505;-48
2021/07/02 10:11:18;;;;;;;4.97;4.20;;;21.20;98.40;;;21.51;48.31;101369.09;4906003;28;97769;-49
2021/07/02 10:13:49;;;;;;;6.13;4.83;;;21.30;97.70;;;21.55;51.77;101359.00;4909040;28;98326;-46